createdAt,value
2018-03-07T00:02:23.767Z,72.00
2018-03-07T00:04:51.662Z,71.50
2018-03-07T00:07:19.211Z,71.70
2018-03-07T00:09:47.763Z,72.20
2018-03-07T00:12:15.682Z,72.20
2018-03-07T00:14:43.238Z,72.00
2018-03-07T00:17:11.014Z,72.00
2018-03-07T00:19:38.866Z,72.10
2018-03-07T00:22:07.070Z,71.80
2018-03-07T00:24:34.626Z,71.90
2018-03-07T00:27:03.094Z,72.60
2018-03-07T00:29:30.646Z,71.90
2018-03-07T00:31:59.708Z,71.60
2018-03-07T00:34:27.541Z,71.60
2018-03-07T00:36:55.103Z,72.10
2018-03-07T00:39:22.657Z,72.00
2018-03-07T00:41:52.743Z,72.10
2018-03-07T00:44:20.299Z,72.10
2018-03-07T00:46:47.928Z,72.00
2018-03-07T00:49:15.832Z,71.90
2018-03-07T00:51:43.389Z,71.70
2018-03-07T00:54:10.947Z,71.70
2018-03-07T00:56:38.717Z,71.60
2018-03-07T00:59:06.346Z,71.70
2018-03-07T01:01:34.002Z,71.90
2018-03-07T01:04:01.614Z,71.90
2018-03-07T01:06:29.177Z,72.00
2018-03-07T01:08:57.493Z,71.80
2018-03-07T01:11:25.703Z,71.70
2018-03-07T01:13:53.260Z,72.00
2018-03-07T01:16:20.816Z,72.10
2018-03-07T01:18:48.696Z,71.90
2018-03-07T01:21:16.259Z,71.80
2018-03-07T01:23:43.976Z,71.70
2018-03-07T01:26:11.728Z,72.00
2018-03-07T01:28:39.754Z,71.90
2018-03-07T01:31:07.306Z,71.50
2018-03-07T01:33:34.871Z,71.60
2018-03-07T01:36:03.207Z,71.80
2018-03-07T01:38:30.757Z,71.80
2018-03-07T01:40:58.319Z,71.70
2018-03-07T01:43:26.130Z,71.70
2018-03-07T01:45:53.688Z,71.70
2018-03-07T01:48:21.417Z,71.50
2018-03-07T01:50:49.162Z,72.00
2018-03-07T01:53:16.718Z,71.80
2018-03-07T01:55:44.277Z,71.70
2018-03-07T01:58:12.119Z,71.90
2018-03-07T02:00:40.438Z,71.80
2018-03-07T02:03:07.987Z,71.80
2018-03-07T02:05:35.871Z,71.90
2018-03-07T02:08:03.430Z,71.90
2018-03-07T02:10:31.130Z,71.60
2018-03-07T02:12:59.300Z,71.60
2018-03-07T02:15:26.887Z,71.70
2018-03-07T02:17:54.438Z,71.70
2018-03-07T02:20:23.107Z,71.60
2018-03-07T02:22:50.666Z,71.40
2018-03-07T02:25:19.210Z,71.60
2018-03-07T02:27:47.066Z,71.50
2018-03-07T02:30:14.619Z,71.20
2018-03-07T02:32:42.214Z,71.70
2018-03-07T02:35:09.784Z,71.70
2018-03-07T02:37:37.734Z,71.80
2018-03-07T02:40:05.592Z,72.20
2018-03-07T02:42:33.712Z,71.90
2018-03-07T02:45:01.271Z,72.20
2018-03-07T02:47:29.607Z,72.40
2018-03-07T02:49:57.586Z,72.40
2018-03-07T02:52:25.266Z,72.60
2018-03-07T02:54:52.825Z,72.70
2018-03-07T02:57:20.691Z,72.80
2018-03-07T02:59:49.200Z,72.80
2018-03-07T03:02:17.531Z,72.90
2018-03-07T03:04:45.518Z,72.80
2018-03-07T03:07:13.851Z,72.70
2018-03-07T03:09:41.402Z,73.20
2018-03-07T03:12:10.142Z,73.10
2018-03-07T03:14:37.703Z,73.00
2018-03-07T03:17:05.283Z,73.40
2018-03-07T03:19:33.834Z,74.00
2018-03-07T03:22:01.418Z,74.00
2018-03-07T03:24:29.202Z,74.00
2018-03-07T03:26:56.818Z,74.40
2018-03-07T03:29:24.373Z,73.80
2018-03-07T03:31:51.936Z,73.70
2018-03-07T03:34:19.723Z,73.80
2018-03-07T03:36:47.546Z,74.10
2018-03-07T03:39:15.134Z,74.30
2018-03-07T03:41:43.123Z,74.10
2018-03-07T03:44:11.471Z,74.30
2018-03-07T03:46:39.027Z,74.30
2018-03-07T03:49:06.973Z,74.50
2018-03-07T03:51:34.538Z,74.60
2018-03-07T03:54:02.097Z,74.60
2018-03-07T03:56:29.890Z,74.70
2018-03-07T03:58:57.449Z,74.80
2018-03-07T04:01:25.184Z,74.80
2018-03-07T04:03:52.882Z,74.80
2018-03-07T04:06:21.035Z,74.80
2018-03-07T04:08:48.600Z,75.10
2018-03-07T04:11:16.887Z,75.10
2018-03-07T04:13:44.924Z,75.20
2018-03-07T04:16:12.484Z,75.20
2018-03-07T04:18:40.487Z,75.30
2018-03-07T04:21:08.042Z,75.20
2018-03-07T04:23:35.591Z,75.40
2018-03-07T04:26:03.310Z,75.30
2018-03-07T04:28:31.634Z,75.50
2018-03-07T04:30:59.199Z,75.40
2018-03-07T04:33:27.070Z,75.60
2018-03-07T04:35:54.626Z,75.50
2018-03-07T04:38:22.354Z,75.60
2018-03-07T04:40:50.286Z,75.50
2018-03-07T04:43:18.623Z,75.70
2018-03-07T04:45:46.176Z,75.60
2018-03-07T04:48:13.781Z,75.50
2018-03-07T04:50:41.358Z,75.60
2018-03-07T04:53:09.766Z,76.10
2018-03-07T04:55:37.675Z,76.00
2018-03-07T04:58:05.225Z,75.90
2018-03-07T05:00:33.402Z,76.20
2018-03-07T05:03:02.094Z,76.20
2018-03-07T05:05:30.622Z,76.50
2018-03-07T05:07:58.436Z,76.40
2018-03-07T05:10:25.994Z,76.40
2018-03-07T05:12:53.540Z,76.40
2018-03-07T05:15:22.441Z,76.20
2018-03-07T05:17:50.902Z,76.30
2018-03-07T05:20:18.481Z,76.20
2018-03-07T05:22:46.061Z,76.20
2018-03-07T05:25:14.393Z,76.50
2018-03-07T05:27:41.945Z,76.40
2018-03-07T05:30:09.847Z,76.40
2018-03-07T05:32:37.401Z,76.20
2018-03-07T05:35:04.961Z,76.20
2018-03-07T05:37:32.841Z,76.00
2018-03-07T05:40:01.737Z,76.10
2018-03-07T05:42:30.194Z,76.30
2018-03-07T05:44:57.747Z,76.20
2018-03-07T05:47:26.570Z,76.10
2018-03-07T05:49:54.890Z,76.40
2018-03-07T05:52:23.803Z,76.30
2018-03-07T05:54:51.762Z,76.30
2018-03-07T05:57:19.317Z,76.20
2018-03-07T05:59:46.881Z,76.10
2018-03-07T06:02:15.381Z,76.00
2018-03-07T06:04:44.568Z,76.00
2018-03-07T06:07:12.454Z,76.10
2018-03-07T06:09:41.651Z,75.90
2018-03-07T06:12:09.217Z,75.90
2018-03-07T06:14:36.766Z,75.70
2018-03-07T06:17:10.714Z,75.90
2018-03-07T06:19:38.955Z,75.80
2018-03-07T06:22:06.690Z,75.80
2018-03-07T06:24:34.990Z,75.80
2018-03-07T06:27:02.547Z,75.60
2018-03-07T06:29:30.103Z,75.50
2018-03-07T06:31:57.849Z,75.70
2018-03-07T06:34:25.594Z,75.50
2018-03-07T06:36:53.154Z,75.50
2018-03-07T06:39:20.935Z,75.20
2018-03-07T06:41:54.782Z,75.00
2018-03-07T06:44:22.338Z,75.10
2018-03-07T06:46:49.901Z,75.00
2018-03-07T06:49:18.777Z,74.40
2018-03-07T06:51:46.329Z,74.50
2018-03-07T06:54:14.978Z,74.20
2018-03-07T06:56:44.014Z,74.20
2018-03-07T06:59:11.571Z,74.10
2018-03-07T07:01:39.567Z,73.70
2018-03-07T07:04:07.913Z,73.60
2018-03-07T07:06:35.691Z,73.60
2018-03-07T07:09:03.541Z,73.30
2018-03-07T07:11:31.117Z,73.10
2018-03-07T07:13:58.663Z,72.80
2018-03-07T07:16:26.546Z,72.70
2018-03-07T07:18:54.383Z,72.60
2018-03-07T07:21:21.933Z,72.20
2018-03-07T07:23:49.729Z,71.90
2018-03-07T07:26:17.289Z,72.00
2018-03-07T07:28:46.354Z,71.60
2018-03-07T07:31:14.354Z,71.60
2018-03-07T07:33:41.905Z,71.50
2018-03-07T07:36:09.483Z,71.10
2018-03-07T07:38:37.098Z,70.70
2018-03-07T07:41:04.652Z,70.70
2018-03-07T07:43:32.212Z,70.50
2018-03-07T07:45:59.906Z,70.20
2018-03-07T07:48:28.876Z,70.30
2018-03-07T07:50:57.893Z,70.10
2018-03-07T07:53:28.094Z,70.10
2018-03-07T07:55:56.700Z,70.20
2018-03-07T07:58:24.259Z,68.80
2018-03-07T08:00:51.807Z,68.20
2018-03-07T08:03:20.721Z,68.60
2018-03-07T08:05:51.344Z,67.80
2018-03-07T08:08:20.407Z,67.60
2018-03-07T08:10:52.095Z,67.60
2018-03-07T08:13:19.667Z,67.30
2018-03-07T08:15:50.250Z,67.30
2018-03-07T08:18:23.541Z,67.60
2018-03-07T08:20:51.069Z,67.60
2018-03-07T08:23:18.768Z,66.50
2018-03-07T08:25:46.368Z,66.60
2018-03-07T08:28:14.091Z,66.30
2018-03-07T08:30:41.659Z,65.80
2018-03-07T08:33:09.267Z,65.80
2018-03-07T08:35:37.586Z,65.50
2018-03-07T08:38:05.130Z,65.50
2018-03-07T08:40:32.733Z,65.00
2018-03-07T08:43:00.286Z,65.70
2018-03-07T08:45:27.834Z,65.40
2018-03-07T08:47:55.408Z,65.50
2018-03-07T08:50:23.244Z,65.20
2018-03-07T08:52:50.794Z,65.40
2018-03-07T08:55:18.611Z,65.10
2018-03-07T08:57:46.155Z,65.40
2018-03-07T09:00:13.726Z,64.90
2018-03-07T09:02:41.401Z,64.40
2018-03-07T09:05:08.940Z,64.40
2018-03-07T09:07:36.489Z,64.00
2018-03-07T09:10:04.200Z,64.40
2018-03-07T09:12:32.634Z,64.60
2018-03-07T09:15:00.187Z,64.50
2018-03-07T09:17:27.786Z,63.60
2018-03-07T09:19:56.108Z,62.90
2018-03-07T09:22:23.658Z,62.90
2018-03-07T09:24:51.355Z,62.70
2018-03-07T09:27:18.905Z,62.40
2018-03-07T09:29:46.467Z,63.50
2018-03-07T09:32:14.063Z,62.40
2018-03-07T09:34:41.616Z,62.30
2018-03-07T09:37:09.954Z,61.20
2018-03-07T09:39:37.759Z,61.20
2018-03-07T09:42:06.093Z,61.00
2018-03-07T09:44:33.638Z,60.20
2018-03-07T09:47:01.616Z,59.80
2018-03-07T09:49:31.082Z,60.80
2018-03-07T09:51:59.403Z,61.40
2018-03-07T09:54:32.782Z,61.40
2018-03-07T09:57:00.333Z,59.90
2018-03-07T09:59:27.893Z,59.60
2018-03-07T10:01:57.006Z,59.40
2018-03-07T10:04:25.363Z,59.60
2018-03-07T10:06:55.077Z,59.50
2018-03-07T10:09:24.414Z,60.00
2018-03-07T10:11:51.968Z,60.50
2018-03-07T10:14:19.542Z,60.40
2018-03-07T10:16:48.642Z,61.00
2018-03-07T10:19:16.202Z,60.40
2018-03-07T10:21:43.755Z,59.70
2018-03-07T10:24:11.630Z,61.00
2018-03-07T10:26:39.212Z,59.30
2018-03-07T10:29:09.615Z,58.80
2018-03-07T10:31:41.296Z,58.70
2018-03-07T10:34:11.347Z,58.40
2018-03-07T10:36:38.896Z,58.80
2018-03-07T10:39:06.459Z,57.50
2018-03-07T10:41:35.966Z,57.20
2018-03-07T10:44:06.600Z,56.70
2018-03-07T10:46:34.149Z,56.40
2018-03-07T10:49:02.990Z,57.10
2018-03-07T10:51:30.538Z,56.60
2018-03-07T10:53:58.495Z,55.50
2018-03-07T10:56:29.186Z,56.70
2018-03-07T10:58:56.885Z,55.60
2018-03-07T11:01:24.432Z,55.50
2018-03-07T11:03:52.401Z,55.50
2018-03-07T11:06:19.967Z,54.80
2018-03-07T11:08:47.524Z,55.60
2018-03-07T11:11:15.405Z,53.80
2018-03-07T11:13:42.962Z,53.50
2018-03-07T11:16:10.511Z,53.10
2018-03-07T11:18:38.103Z,53.00
2018-03-07T11:21:05.660Z,53.00
2018-03-07T11:23:33.210Z,53.40
2018-03-07T11:26:00.996Z,53.40
2018-03-07T11:28:29.314Z,55.20
2018-03-07T11:30:56.885Z,55.10
2018-03-07T11:33:24.590Z,54.80
2018-03-07T11:35:52.906Z,54.00
2018-03-07T11:38:21.229Z,53.40
2018-03-07T11:40:49.181Z,53.40
2018-03-07T11:43:16.736Z,53.90
2018-03-07T11:45:44.286Z,55.00
2018-03-07T11:48:15.363Z,55.60
2018-03-07T11:50:43.052Z,55.80
2018-03-07T11:53:10.611Z,55.80
2018-03-07T11:55:40.122Z,55.20
2018-03-07T11:58:08.447Z,54.20
2018-03-07T12:00:36.351Z,54.20
2018-03-07T12:03:07.587Z,53.40
2018-03-07T12:05:35.125Z,51.50
2018-03-07T12:08:02.678Z,50.50
2018-03-07T12:10:33.435Z,51.00
2018-03-07T12:13:00.981Z,51.60
2018-03-07T12:15:28.530Z,51.60
2018-03-07T12:17:57.860Z,51.20
2018-03-07T12:20:26.190Z,50.80
2018-03-07T12:22:54.505Z,50.70
2018-03-07T12:25:23.405Z,50.40
2018-03-07T12:27:50.983Z,49.40
2018-03-07T12:30:18.529Z,50.00
2018-03-07T12:32:48.546Z,50.50
2018-03-07T12:35:18.410Z,50.40
2018-03-07T12:37:45.982Z,49.60
2018-03-07T12:40:14.145Z,50.80
2018-03-07T12:42:45.295Z,50.00
2018-03-07T12:45:12.861Z,49.80
2018-03-07T12:47:46.196Z,51.00
2018-03-07T12:50:13.751Z,49.90
2018-03-07T12:52:41.299Z,50.80
2018-03-07T12:55:12.726Z,50.60
2018-03-07T12:57:40.267Z,51.50
2018-03-07T13:00:08.480Z,51.60
2018-03-07T13:02:39.600Z,52.50
2018-03-07T13:05:07.153Z,52.50
2018-03-07T13:07:34.702Z,52.30
2018-03-07T13:10:02.718Z,51.20
2018-03-07T13:12:30.267Z,51.60
2018-03-07T13:14:57.843Z,52.80
2018-03-07T13:17:26.528Z,52.70
2018-03-07T13:19:54.084Z,52.80
2018-03-07T13:22:21.810Z,53.00
2018-03-07T13:24:49.709Z,52.30
2018-03-07T13:27:17.261Z,52.10
2018-03-07T13:29:44.842Z,53.50
2018-03-07T13:32:12.424Z,53.90
2018-03-07T13:34:40.126Z,53.50
2018-03-07T13:37:07.684Z,50.20
2018-03-07T13:39:35.486Z,50.10
2018-03-07T13:42:03.032Z,50.80
2018-03-07T13:44:30.614Z,51.50
2018-03-07T13:46:58.210Z,52.90
2018-03-07T13:49:27.350Z,54.70
2018-03-07T13:51:54.902Z,55.30
2018-03-07T13:54:23.260Z,55.70
2018-03-07T13:56:55.137Z,56.30
2018-03-07T13:59:22.716Z,56.80
2018-03-07T14:01:50.272Z,57.60
2018-03-07T14:04:18.437Z,58.00
2018-03-07T14:06:45.991Z,58.60
2018-03-07T14:09:13.918Z,58.20
2018-03-07T14:11:41.469Z,58.60
2018-03-07T14:14:09.793Z,58.10
2018-03-07T14:16:37.395Z,58.00
2018-03-07T14:19:05.709Z,58.90
2018-03-07T14:21:33.402Z,58.90
2018-03-07T14:24:01.166Z,60.60
2018-03-07T14:26:28.706Z,61.30
2018-03-07T14:28:56.259Z,60.40
2018-03-07T14:31:24.153Z,60.80
2018-03-07T14:33:51.729Z,60.90
2018-03-07T14:36:19.682Z,61.50
2018-03-07T14:38:47.288Z,61.80
2018-03-07T14:41:14.834Z,61.50
2018-03-07T14:43:43.243Z,62.30
2018-03-07T14:46:10.946Z,62.30
2018-03-07T14:48:38.489Z,62.40
2018-03-07T14:51:06.046Z,62.00
2018-03-07T14:53:33.950Z,62.20
2018-03-07T14:56:02.265Z,62.00
2018-03-07T14:58:36.010Z,61.90
2018-03-07T15:01:03.620Z,63.30
2018-03-07T15:03:31.182Z,61.60
2018-03-07T15:06:02.708Z,61.70
2018-03-07T15:08:31.022Z,61.10
2018-03-07T15:10:58.577Z,61.10
2018-03-07T15:13:28.543Z,61.70
2018-03-07T15:15:57.573Z,61.10
2018-03-07T15:18:25.126Z,61.20
2018-03-07T15:20:54.181Z,61.00
2018-03-07T15:23:21.729Z,61.00
2018-03-07T15:25:50.093Z,60.80
2018-03-07T15:28:17.986Z,60.80
2018-03-07T15:30:45.538Z,61.10
2018-03-07T15:33:13.283Z,60.90
2018-03-07T15:35:41.182Z,61.60
2018-03-07T15:38:08.740Z,61.70
2018-03-07T15:40:36.299Z,62.10
2018-03-07T15:43:04.337Z,62.40
2018-03-07T15:45:31.897Z,62.30
2018-03-07T15:48:04.629Z,63.00
2018-03-07T15:50:32.950Z,63.30
2018-03-07T15:53:00.512Z,63.30
2018-03-07T15:55:33.156Z,63.80
2018-03-07T15:58:01.492Z,64.30
2018-03-07T16:00:29.058Z,64.10
2018-03-07T16:02:58.553Z,64.50
2018-03-07T16:05:26.102Z,63.50
2018-03-07T16:07:54.476Z,63.80
2018-03-07T16:10:23.158Z,64.40
2018-03-07T16:12:50.716Z,64.20
2018-03-07T16:15:18.273Z,64.50
2018-03-07T16:17:48.025Z,65.10
2018-03-07T16:20:16.684Z,64.50
2018-03-07T16:22:46.053Z,64.70
2018-03-07T16:25:14.897Z,65.00
2018-03-07T16:27:42.453Z,65.10
2018-03-07T16:30:10.019Z,65.60
2018-03-07T16:32:43.205Z,66.30
2018-03-07T16:35:13.006Z,66.20
2018-03-07T16:37:40.561Z,66.20
2018-03-07T16:40:10.693Z,66.50
2018-03-07T16:42:42.831Z,65.80
2018-03-07T16:45:11.353Z,66.20
2018-03-07T16:47:43.093Z,66.00
2018-03-07T16:50:10.655Z,66.00
2018-03-07T16:52:38.217Z,67.00
2018-03-07T16:55:09.365Z,66.30
2018-03-07T16:57:36.922Z,66.80
2018-03-07T17:00:04.718Z,66.50
2018-03-07T17:02:33.078Z,66.60
2018-03-07T17:05:00.625Z,66.50
2018-03-07T17:07:28.183Z,67.40
2018-03-07T17:10:00.027Z,67.00
2018-03-07T17:12:27.573Z,67.00
2018-03-07T17:14:55.135Z,67.60
2018-03-07T17:17:27.550Z,67.70
2018-03-07T17:19:55.118Z,67.50
2018-03-07T17:22:24.399Z,68.00
2018-03-07T17:24:57.273Z,68.10
2018-03-07T17:27:28.383Z,68.40
2018-03-07T17:29:55.938Z,68.30
2018-03-07T17:32:24.152Z,68.40
2018-03-07T17:34:51.704Z,67.90
2018-03-07T17:37:19.302Z,68.30
2018-03-07T17:39:51.447Z,69.10
2018-03-07T17:42:19.004Z,69.10
2018-03-07T17:44:57.958Z,69.00
2018-03-07T17:47:25.538Z,69.40
2018-03-07T17:49:53.153Z,69.30
2018-03-07T17:52:20.705Z,69.60
2018-03-07T17:54:49.143Z,69.60
2018-03-07T17:57:16.761Z,69.80
2018-03-07T17:59:46.470Z,70.90
2018-03-07T18:02:14.022Z,71.00
2018-03-07T18:04:42.366Z,70.00
2018-03-07T18:07:15.129Z,69.90
2018-03-07T18:09:42.712Z,70.00
2018-03-07T18:12:10.266Z,70.40
2018-03-07T18:14:37.823Z,70.10
2018-03-07T18:17:05.400Z,70.10
2018-03-07T18:19:32.953Z,70.90
2018-03-07T18:22:00.498Z,70.50
2018-03-07T18:24:28.442Z,71.00
2018-03-07T18:26:55.997Z,70.60
2018-03-07T18:29:23.561Z,70.70
2018-03-07T18:31:51.396Z,71.00
2018-03-07T18:34:18.964Z,71.30
2018-03-07T18:36:46.530Z,71.40
2018-03-07T18:39:14.914Z,71.10
2018-03-07T18:41:43.271Z,71.10
2018-03-07T18:44:10.831Z,70.90
2018-03-07T18:46:38.856Z,71.70
2018-03-07T18:49:06.437Z,71.60
2018-03-07T18:51:34.171Z,71.80
2018-03-07T18:54:02.004Z,71.70
2018-03-07T18:56:30.339Z,71.30
2018-03-07T18:59:01.120Z,71.30
2018-03-07T19:01:28.689Z,71.60
2018-03-07T19:03:57.334Z,72.10
2018-03-07T19:06:25.987Z,72.10
2018-03-07T19:08:53.639Z,71.90
2018-03-07T19:11:22.918Z,72.40
2018-03-07T19:13:50.480Z,72.30
2018-03-07T19:16:18.853Z,72.50
2018-03-07T19:18:47.412Z,72.70
2018-03-07T19:21:14.966Z,72.70
2018-03-07T19:23:43.301Z,72.10
2018-03-07T19:26:10.882Z,72.20
2018-03-07T19:28:38.442Z,72.10
2018-03-07T19:31:06.009Z,72.40
2018-03-07T19:33:33.783Z,72.40
2018-03-07T19:36:01.334Z,72.20
2018-03-07T19:38:31.165Z,72.40
2018-03-07T19:41:01.881Z,72.80
2018-03-07T19:43:29.450Z,72.60
2018-03-07T19:45:59.622Z,72.70
2018-03-07T19:48:27.178Z,72.70
2018-03-07T19:50:54.743Z,73.10
2018-03-07T19:53:25.322Z,73.50
2018-03-07T19:55:53.557Z,73.60
2018-03-07T19:58:21.222Z,73.40
2018-03-07T20:00:53.473Z,73.50
2018-03-07T20:03:21.020Z,73.70
2018-03-07T20:05:48.577Z,73.40
2018-03-07T20:08:18.933Z,73.30
2018-03-07T20:10:46.492Z,73.30
2018-03-07T20:13:14.056Z,73.20
2018-03-07T20:15:41.687Z,73.40
2018-03-07T20:18:09.242Z,73.40
2018-03-07T20:20:36.797Z,73.70
2018-03-07T20:23:04.622Z,73.70
2018-03-07T20:25:32.182Z,74.10
2018-03-07T20:27:59.732Z,74.00
2018-03-07T20:30:27.833Z,73.70
2018-03-07T20:32:55.389Z,73.90
2018-03-07T20:35:22.954Z,74.10
2018-03-07T20:37:50.929Z,74.50
2018-03-07T20:40:18.496Z,74.20
2018-03-07T20:42:46.830Z,74.20
2018-03-07T20:45:14.629Z,74.20
2018-03-07T20:47:42.953Z,75.30
2018-03-07T20:50:10.506Z,74.70
2018-03-07T20:52:38.409Z,74.50
2018-03-07T20:55:05.996Z,74.60
2018-03-07T20:57:33.546Z,74.70
2018-03-07T21:00:01.467Z,74.70
2018-03-07T21:02:29.030Z,74.70
2018-03-07T21:04:56.623Z,74.50
2018-03-07T21:07:24.412Z,74.80
2018-03-07T21:09:52.737Z,74.60
2018-03-07T21:12:20.295Z,74.60
2018-03-07T21:14:47.911Z,74.40
2018-03-07T21:17:15.470Z,74.40
2018-03-07T21:19:43.787Z,75.10
2018-03-07T21:22:11.602Z,75.10
2018-03-07T21:24:39.155Z,75.00
2018-03-07T21:27:06.714Z,75.10
2018-03-07T21:29:34.562Z,75.00
2018-03-07T21:32:02.133Z,75.00
2018-03-07T21:34:29.724Z,75.40
2018-03-07T21:36:58.572Z,75.20
2018-03-07T21:39:26.171Z,75.20
2018-03-07T21:41:53.739Z,74.90
2018-03-07T21:44:25.213Z,74.90
2018-03-07T21:46:55.166Z,74.80
2018-03-07T21:49:22.721Z,75.00
2018-03-07T21:51:54.042Z,75.00
2018-03-07T21:54:21.602Z,75.10
2018-03-07T21:56:49.153Z,74.90
2018-03-07T21:59:20.534Z,75.00
2018-03-07T22:01:48.213Z,74.90
2018-03-07T22:04:15.762Z,74.90
2018-03-07T22:06:43.727Z,74.90
2018-03-07T22:09:12.475Z,74.90
2018-03-07T22:11:40.032Z,75.10
2018-03-07T22:14:10.925Z,75.20
2018-03-07T22:16:38.480Z,75.20
2018-03-07T22:19:06.809Z,75.60
2018-03-07T22:21:36.350Z,75.60
2018-03-07T22:24:06.969Z,75.40
2018-03-07T22:26:34.529Z,75.30
2018-03-07T22:29:04.699Z,75.10
2018-03-07T22:31:33.053Z,75.40
2018-03-07T22:34:00.610Z,75.40
2018-03-07T22:36:28.993Z,75.30
2018-03-07T22:38:56.560Z,75.40
2018-03-07T22:41:24.891Z,75.40
2018-03-07T22:43:54.318Z,75.40
2018-03-07T22:46:22.890Z,75.40
2018-03-07T22:48:50.462Z,75.60
2018-03-07T22:51:19.146Z,76.10
2018-03-07T22:53:46.699Z,75.60
2018-03-07T22:56:14.255Z,75.70
2018-03-07T22:58:42.601Z,75.40
2018-03-07T23:01:10.164Z,75.40
2018-03-07T23:03:37.752Z,75.40
2018-03-07T23:06:05.736Z,75.50
2018-03-07T23:08:33.494Z,75.40
2018-03-07T23:11:01.060Z,75.00
2018-03-07T23:13:29.472Z,75.20
2018-03-07T23:15:57.033Z,75.40
2018-03-07T23:18:24.593Z,75.10
2018-03-07T23:20:52.532Z,75.50
2018-03-07T23:23:20.107Z,75.40
2018-03-07T23:25:47.673Z,75.00
2018-03-07T23:28:16.536Z,74.60
2018-03-07T23:30:44.102Z,74.60
2018-03-07T23:33:11.658Z,74.90
2018-03-07T23:35:39.277Z,74.80
2018-03-07T23:38:06.980Z,75.00
2018-03-07T23:40:34.546Z,75.10
2018-03-07T23:43:03.941Z,74.90
2018-03-07T23:45:31.496Z,74.80
2018-03-07T23:48:00.561Z,74.90
2018-03-07T23:50:28.586Z,74.80
2018-03-07T23:52:56.901Z,75.40
2018-03-07T23:55:24.478Z,75.40
2018-03-07T23:57:52.195Z,75.10
